Time;durP1;ratioP1;P1;durP2;ratioP2;P2;SDS_P1;SDS_P2;PMS_P1;PMS_P2;Temp;Humidity;BMP_temperature;BMP_pressure;BME280_temperature;BME280_humidity;BME280_pressure;Samples;Min_cycle;Max_cycle;Signal;HPM_P1;HPM_P2
2024/03/03 00:01:14;;;;;;;30.17;16.88;;;;;;;1.63;100.00;97162.31;6105687;19;20022;-71
2024/03/03 00:03:14;;;;;;;28.90;16.30;;;;;;;1.68;100.00;97155.81;6106460;19;20402;-71
2024/03/03 00:05:15;;;;;;;28.45;15.15;;;;;;;1.71;100.00;97149.66;6106706;19;20003;-71
2024/03/03 00:07:15;;;;;;;32.22;15.77;;;;;;;1.65;100.00;97146.41;6107069;19;20011;-71
2024/03/03 00:09:15;;;;;;;29.77;14.88;;;;;;;1.64;100.00;97146.75;6106895;19;20458;-71
2024/03/03 00:11:16;;;;;;;27.20;15.85;;;;;;;1.59;100.00;97156.00;6105308;19;20103;-71
2024/03/03 00:13:16;;;;;;;25.67;15.95;;;;;;;1.63;100.00;97151.41;6107084;19;20009;-71
2024/03/03 00:15:17;;;;;;;28.20;15.68;;;;;;;1.62;100.00;97143.59;6099549;19;20006;-71
2024/03/03 00:17:17;;;;;;;25.48;15.00;;;;;;;1.61;100.00;97159.16;6099876;19;20535;-71
2024/03/03 00:19:17;;;;;;;23.55;14.82;;;;;;;1.55;100.00;97141.47;6099330;19;20533;-71
2024/03/03 00:21:18;;;;;;;26.80;14.00;;;;;;;1.54;100.00;97155.47;6103897;19;20099;-71
2024/03/03 00:23:19;;;;;;;23.20;13.02;;;;;;;1.48;100.00;97149.47;6104868;19;20020;-71
2024/03/03 00:25:19;;;;;;;24.15;12.88;;;;;;;1.44;100.00;97153.25;6104804;19;20084;-71
2024/03/03 00:27:19;;;;;;;24.65;12.95;;;;;;;1.40;100.00;97150.44;6106000;19;20026;-71
2024/03/03 00:29:20;;;;;;;24.75;12.35;;;;;;;1.35;100.00;97150.69;6105333;19;20006;-71
2024/03/03 00:31:21;;;;;;;24.08;12.50;;;;;;;1.28;100.00;97151.31;6103932;19;20017;-71
2024/03/03 00:33:21;;;;;;;21.00;11.55;;;;;;;1.29;100.00;97150.16;6105731;19;20017;-71
2024/03/03 00:35:21;;;;;;;19.88;11.98;;;;;;;1.30;100.00;97161.84;6104119;19;20510;-71
2024/03/03 00:37:22;;;;;;;22.60;12.57;;;;;;;1.32;100.00;97154.09;6104901;19;20479;-71
2024/03/03 00:39:22;;;;;;;20.02;12.25;;;;;;;1.40;100.00;97156.66;6098111;19;19999;-71
2024/03/03 00:41:22;;;;;;;20.67;11.73;;;;;;;1.49;100.00;97151.06;6097236;19;20046;-71
2024/03/03 00:43:23;;;;;;;21.50;11.75;;;;;;;1.51;100.00;97150.72;6097552;19;20006;-71
2024/03/03 00:45:23;;;;;;;21.77;11.18;;;;;;;1.53;100.00;97154.66;6099363;19;20014;-71
2024/03/03 00:47:23;;;;;;;25.08;11.48;;;;;;;1.49;100.00;97148.34;6101388;19;20010;-71
2024/03/03 00:49:24;;;;;;;21.88;11.70;;;;;;;1.48;100.00;97149.47;6101439;19;20018;-71
2024/03/03 00:51:24;;;;;;;18.02;11.20;;;;;;;1.45;100.00;97141.22;6098274;19;20011;-71
2024/03/03 00:53:25;;;;;;;23.65;11.73;;;;;;;1.38;100.00;97147.28;6104728;19;19999;-71
2024/03/03 00:55:25;;;;;;;20.40;10.63;;;;;;;1.38;100.00;97150.78;6101165;19;20011;-71
2024/03/03 00:57:26;;;;;;;22.13;10.77;;;;;;;1.39;100.00;97148.84;6098876;19;20002;-71
2024/03/03 00:59:26;;;;;;;17.50;10.05;;;;;;;1.41;100.00;97143.88;6100423;19;20011;-71
2024/03/03 01:01:26;;;;;;;18.90;10.18;;;;;;;1.40;100.00;97136.81;6099390;19;19999;-71
2024/03/03 01:03:29;;;;;;;19.55;10.60;;;;;;;1.30;100.00;97121.75;6100062;19;20014;-71
2024/03/03 01:05:30;;;;;;;18.08;10.38;;;;;;;1.25;100.00;97126.69;6101413;19;20011;-71
2024/03/03 01:07:30;;;;;;;17.20;9.35;;;;;;;1.24;100.00;97122.38;6101577;19;20013;-71
2024/03/03 01:09:31;;;;;;;24.58;12.55;;;;;;;1.16;100.00;97117.88;6102067;19;20074;-71
2024/03/03 01:11:31;;;;;;;21.48;12.43;;;;;;;1.09;100.00;97129.41;6100850;19;20014;-71
2024/03/03 01:13:31;;;;;;;19.65;11.05;;;;;;;1.03;100.00;97138.97;6097167;19;20003;-71
2024/03/03 01:15:32;;;;;;;19.55;9.82;;;;;;;0.99;100.00;97127.16;6109065;19;20003;-71
2024/03/03 01:17:32;;;;;;;16.90;10.05;;;;;;;1.02;100.00;97134.66;6107855;19;20002;-71
2024/03/03 01:19:35;;;;;;;18.67;9.52;;;;;;;0.97;100.00;97127.50;6110304;19;20003;-71
2024/03/03 01:21:39;;;;;;;18.80;10.15;;;;;;;0.90;100.00;97132.75;6107876;19;20377;-71
2024/03/03 01:23:39;;;;;;;19.15;10.32;;;;;;;0.87;100.00;97138.13;6110445;19;20003;-71
2024/03/03 01:25:40;;;;;;;17.58;10.23;;;;;;;0.82;100.00;97139.16;6110215;19;20086;-71
2024/03/03 01:27:40;;;;;;;19.17;9.68;;;;;;;0.77;100.00;97142.94;6105774;19;20007;-71
2024/03/03 01:29:40;;;;;;;14.90;8.80;;;;;;;0.74;100.00;97137.38;6108553;19;20062;-71
2024/03/03 01:31:42;;;;;;;16.58;9.13;;;;;;;0.71;100.00;97127.19;6105864;19;20027;-71
2024/03/03 01:33:43;;;;;;;19.38;10.48;;;;;;;0.67;100.00;97127.09;6109095;19;20006;-71
2024/03/03 01:35:43;;;;;;;19.40;11.35;;;;;;;0.65;100.00;97134.78;6110620;19;20003;-71
2024/03/03 01:37:44;;;;;;;19.48;9.95;;;;;;;0.63;100.00;97136.28;6109631;19;19999;-71
2024/03/03 01:39:46;;;;;;;17.77;9.43;;;;;;;0.65;100.00;97123.09;6109491;19;20484;-71
2024/03/03 01:41:49;;;;;;;19.30;9.38;;;;;;;0.68;100.00;97131.38;6107331;19;20008;-71
2024/03/03 01:43:49;;;;;;;12.57;7.78;;;;;;;0.67;100.00;97127.09;6109771;19;20078;-71
2024/03/03 01:45:50;;;;;;;14.48;7.88;;;;;;;0.67;100.00;97124.38;6108698;19;20619;-71
2024/03/03 01:47:52;;;;;;;11.18;7.97;;;;;;;0.75;100.00;97128.09;6109151;19;19994;-71
2024/03/03 01:49:54;;;;;;;12.57;7.45;;;;;;;0.77;100.00;97131.25;6108957;19;20007;-71
2024/03/03 01:51:55;;;;;;;14.80;8.23;;;;;;;0.79;100.00;97128.97;6108841;19;19998;-71
2024/03/03 01:53:56;;;;;;;12.07;7.03;;;;;;;0.78;100.00;97128.16;6108698;19;20481;-71
2024/03/03 01:55:57;;;;;;;11.18;6.82;;;;;;;0.79;100.00;97123.50;6109340;19;20014;-71
2024/03/03 01:58:02;;;;;;;11.48;7.35;;;;;;;0.82;100.00;97125.53;6108184;19;20058;-71
2024/03/03 02:00:09;;;;;;;12.85;7.38;;;;;;;0.83;100.00;97114.31;6106741;19;20026;-71
2024/03/03 02:02:10;;;;;;;13.32;7.88;;;;;;;0.81;100.00;97115.78;6108173;19;20421;-71
2024/03/03 02:04:12;;;;;;;11.60;6.72;;;;;;;0.76;100.00;97111.41;6108489;19;20010;-71
2024/03/03 02:06:15;;;;;;;12.07;7.50;;;;;;;0.72;100.00;97110.50;6108367;19;20026;-71
2024/03/03 02:08:15;;;;;;;;;;;;;;;0.62;100.00;97115.66;6108797;19;20024;-71
2024/03/03 02:10:16;;;;;;;15.13;8.38;;;;;;;0.45;100.00;97106.63;6107456;19;19910;-71
2024/03/03 02:12:17;;;;;;;13.60;7.85;;;;;;;0.39;100.00;97094.41;6108159;19;20333;-71
2024/03/03 02:14:17;;;;;;;14.02;7.85;;;;;;;0.32;100.00;97104.28;6108177;19;20022;-71
2024/03/03 02:16:18;;;;;;;13.30;7.50;;;;;;;0.25;100.00;97102.97;6107297;19;20003;-71
2024/03/03 02:18:18;;;;;;;15.27;8.35;;;;;;;0.20;100.00;97100.47;6108896;19;19998;-71
2024/03/03 02:20:18;;;;;;;12.63;7.82;;;;;;;0.17;100.00;97100.38;6107747;19;20006;-71
2024/03/03 02:22:19;;;;;;;16.05;8.52;;;;;;;0.14;100.00;97101.81;6108073;19;20003;-71
2024/03/03 02:24:19;;;;;;;16.20;7.70;;;;;;;0.14;100.00;97099.09;6108352;19;20032;-71
2024/03/03 02:26:21;;;;;;;11.27;7.75;;;;;;;0.17;100.00;97109.31;6108514;19;20002;-71
2024/03/03 02:28:24;;;;;;;15.18;8.15;;;;;;;0.17;100.00;97101.16;6108632;19;20043;-71
2024/03/03 02:30:25;;;;;;;13.90;7.20;;;;;;;0.26;100.00;97104.53;6108139;19;20009;-71
2024/03/03 02:32:25;;;;;;;14.48;7.68;;;;;;;0.32;100.00;97096.13;6109577;19;20034;-71
2024/03/03 02:34:26;;;;;;;13.27;8.02;;;;;;;0.36;100.00;97094.31;6108473;19;20462;-71
2024/03/03 02:36:26;;;;;;;14.15;6.97;;;;;;;0.39;100.00;97101.75;6109062;19;20010;-71
2024/03/03 02:38:26;;;;;;;12.52;7.35;;;;;;;0.40;100.00;97103.34;6108787;19;20015;-71
2024/03/03 02:40:27;;;;;;;14.88;7.18;;;;;;;0.39;100.00;97099.84;6108329;19;20036;-71
2024/03/03 02:42:27;;;;;;;13.00;7.22;;;;;;;0.39;100.00;97101.75;6108239;19;20021;-71
2024/03/03 02:44:27;;;;;;;11.32;6.88;;;;;;;0.39;100.00;97104.50;6108417;19;20028;-71
2024/03/03 02:46:28;;;;;;;13.90;7.32;;;;;;;0.37;100.00;97106.78;6108438;19;20006;-71
2024/03/03 02:48:28;;;;;;;12.95;7.05;;;;;;;0.32;100.00;97102.34;6108322;19;20078;-71
2024/03/03 02:50:28;;;;;;;13.73;7.35;;;;;;;0.27;100.00;97105.31;6107809;19;20032;-71
2024/03/03 02:52:29;;;;;;;15.00;7.15;;;;;;;0.25;100.00;97100.22;6108774;19;20454;-71
2024/03/03 02:54:29;;;;;;;21.33;8.98;;;;;;;0.24;100.00;97106.78;6107765;19;20029;-71
2024/03/03 02:56:29;;;;;;;15.45;8.75;;;;;;;0.15;100.00;97100.69;6108430;19;20003;-71
2024/03/03 02:58:30;;;;;;;24.15;8.73;;;;;;;0.10;100.00;97100.94;6108799;19;20015;-71
2024/03/03 03:00:32;;;;;;;17.95;6.68;;;;;;;0.06;100.00;97110.13;6107307;19;20013;-71
2024/03/03 03:02:32;;;;;;;9.83;6.57;;;;;;;-0.04;100.00;97114.91;6107975;19;20084;-71
2024/03/03 03:04:32;;;;;;;10.52;7.00;;;;;;;-0.10;100.00;97105.38;6108146;19;20600;-71
2024/03/03 03:06:33;;;;;;;11.73;6.93;;;;;;;-0.19;100.00;97104.72;6107805;19;20002;-71
2024/03/03 03:08:33;;;;;;;12.65;6.68;;;;;;;-0.28;100.00;97096.66;6108463;19;20006;-71
2024/03/03 03:10:33;;;;;;;18.17;7.80;;;;;;;-0.35;100.00;97101.09;6106564;19;20499;-71
2024/03/03 03:12:34;;;;;;;12.05;6.93;;;;;;;-0.39;100.00;97101.00;6108365;19;20782;-71
2024/03/03 03:14:34;;;;;;;10.88;7.07;;;;;;;-0.48;100.00;97105.75;6106424;19;20010;-71
2024/03/03 03:16:39;;;;;;;12.60;7.35;;;;;;;-0.49;100.00;97098.72;6108312;19;20730;-71
2024/03/03 03:18:41;;;;;;;12.93;7.15;;;;;;;-0.52;100.00;97098.59;6107511;19;20018;-71
2024/03/03 03:20:42;;;;;;;12.25;7.57;;;;;;;-0.54;100.00;97096.22;6107397;19;20300;-71
2024/03/03 03:22:42;;;;;;;13.82;7.03;;;;;;;-0.54;100.00;97098.16;6107083;19;20034;-71
2024/03/03 03:24:42;;;;;;;12.13;7.05;;;;;;;-0.51;100.00;97100.97;6108372;19;20019;-71
2024/03/03 03:26:43;;;;;;;12.48;6.75;;;;;;;-0.50;100.00;97102.56;6107217;19;20479;-71
2024/03/03 03:28:43;;;;;;;11.85;6.85;;;;;;;-0.49;100.00;97093.28;6106887;19;20011;-71
2024/03/03 03:30:43;;;;;;;12.35;7.05;;;;;;;-0.39;100.00;97092.03;6106687;19;20358;-71
2024/03/03 03:32:44;;;;;;;12.77;7.45;;;;;;;-0.38;100.00;97096.34;6106968;19;20006;-71
2024/03/03 03:34:47;;;;;;;14.98;7.32;;;;;;;-0.36;100.00;97100.31;6106822;19;20017;-71
2024/03/03 03:36:47;;;;;;;11.20;6.80;;;;;;;-0.26;100.00;97101.75;6107607;19;20011;-71
2024/03/03 03:38:48;;;;;;;11.18;6.60;;;;;;;-0.25;100.00;97103.34;6106871;19;20422;-71
2024/03/03 03:40:48;;;;;;;13.52;7.10;;;;;;;-0.21;100.00;97098.03;6106184;19;20014;-71
2024/03/03 03:42:48;;;;;;;11.55;6.75;;;;;;;-0.17;100.00;97097.00;6106743;19;20038;-71
2024/03/03 03:44:48;;;;;;;11.43;6.30;;;;;;;-0.10;100.00;97086.34;6107729;19;20011;-71
2024/03/03 03:46:49;;;;;;;11.63;6.50;;;;;;;-0.08;100.00;97088.75;6107031;19;20016;-71
2024/03/03 03:48:49;;;;;;;12.25;6.82;;;;;;;-0.11;100.00;97083.97;6106719;19;20010;-71
2024/03/03 03:50:50;;;;;;;15.30;6.75;;;;;;;-0.18;100.00;97087.25;6104577;19;20007;-71
2024/03/03 03:52:50;;;;;;;12.45;6.65;;;;;;;-0.33;100.00;97086.03;6106588;19;20030;-71
2024/03/03 03:54:50;;;;;;;11.50;6.63;;;;;;;-0.46;100.00;97092.59;6109947;19;20506;-71
2024/03/03 03:56:51;;;;;;;12.75;6.95;;;;;;;-0.62;100.00;97094.41;6112614;19;20014;-71
2024/03/03 03:58:51;;;;;;;12.07;6.82;;;;;;;-0.67;100.00;97095.41;6112260;19;20010;-71
2024/03/03 04:00:51;;;;;;;18.50;6.60;;;;;;;-0.64;100.00;97092.03;6111387;19;20003;-71
2024/03/03 04:02:52;;;;;;;15.50;6.63;;;;;;;-0.54;100.00;97096.22;6112606;19;20007;-71
2024/03/03 04:04:52;;;;;;;12.63;6.97;;;;;;;-0.48;100.00;97092.16;6112893;19;20011;-71
2024/03/03 04:06:53;;;;;;;10.18;5.90;;;;;;;-0.48;100.00;97094.09;6112387;19;20003;-71
2024/03/03 04:08:53;;;;;;;11.80;6.32;;;;;;;-0.55;100.00;97089.22;6113043;19;20116;-71
2024/03/03 04:10:54;;;;;;;14.02;6.72;;;;;;;-0.64;100.00;97097.47;6111448;19;20387;-71
2024/03/03 04:12:55;;;;;;;9.95;6.65;;;;;;;-0.68;100.00;97082.16;6111202;19;20013;-71
2024/03/03 04:14:56;;;;;;;12.38;6.13;;;;;;;-0.72;100.00;97097.56;6104385;19;20564;-71
2024/03/03 04:16:56;;;;;;;13.60;6.70;;;;;;;-0.68;100.00;97095.75;6112045;19;20346;-71
2024/03/03 04:18:56;;;;;;;11.65;6.60;;;;;;;-0.71;100.00;97091.81;6112113;19;20019;-71
2024/03/03 04:20:57;;;;;;;13.73;6.90;;;;;;;-0.72;100.00;97081.28;6111022;19;20022;-71
2024/03/03 04:22:57;;;;;;;14.30;6.47;;;;;;;-0.70;100.00;97084.44;6110190;19;20125;-71
2024/03/03 04:24:57;;;;;;;11.77;6.32;;;;;;;-0.68;100.00;97088.41;6110701;19;19995;-71
2024/03/03 04:26:58;;;;;;;14.23;7.32;;;;;;;-0.70;100.00;97084.44;6112063;19;19999;-71
2024/03/03 04:28:58;;;;;;;11.60;6.43;;;;;;;-0.76;100.00;97086.59;6111690;19;19995;-71
2024/03/03 04:31:03;;;;;;;15.02;6.75;;;;;;;-0.78;100.00;97079.91;6111148;19;19994;-71
2024/03/03 04:33:03;;;;;;;14.77;7.07;;;;;;;-0.81;100.00;97075.16;6111431;19;20002;-71
2024/03/03 04:35:04;;;;;;;13.20;7.47;;;;;;;-0.88;100.00;97065.66;6111687;19;20002;-71
2024/03/03 04:37:06;;;;;;;20.95;7.18;;;;;;;-0.96;100.00;97061.09;6112227;19;20006;-71
2024/03/03 04:39:07;;;;;;;11.93;7.13;;;;;;;-1.03;100.00;97062.78;6111546;19;19999;-71
2024/03/03 04:41:15;;;;;;;11.63;7.63;;;;;;;-1.03;100.00;97065.50;6109193;19;20009;-71
2024/03/03 04:43:15;;;;;;;11.93;7.22;;;;;;;-0.97;100.00;97064.94;6110537;19;20378;-71
2024/03/03 04:45:15;;;;;;;15.13;7.60;;;;;;;-0.90;100.00;97069.84;6110507;19;20058;-71
2024/03/03 04:47:16;;;;;;;12.05;7.65;;;;;;;-0.87;100.00;97072.66;6111811;19;20011;-71
2024/03/03 04:49:16;;;;;;;9.50;6.10;;;;;;;-0.85;100.00;97069.59;6110774;19;20010;-71
2024/03/03 04:51:16;;;;;;;13.52;6.65;;;;;;;-0.87;100.00;97069.16;6109588;19;20092;-71
2024/03/03 04:53:17;;;;;;;13.25;7.32;;;;;;;-0.90;100.00;97072.56;6111394;19;20586;-71
2024/03/03 04:55:18;;;;;;;11.93;7.30;;;;;;;-0.92;100.00;97066.66;6109754;19;20098;-71
2024/03/03 04:57:18;;;;;;;12.27;7.88;;;;;;;-0.92;100.00;97072.06;6110694;19;20010;-71
2024/03/03 04:59:18;;;;;;;11.65;6.57;;;;;;;-0.95;100.00;97073.56;6110973;19;20090;-71
2024/03/03 05:01:19;;;;;;;12.00;6.78;;;;;;;-1.06;100.00;97082.47;6109151;19;20014;-71
2024/03/03 05:03:19;;;;;;;15.18;7.22;;;;;;;-1.15;100.00;97088.78;6110627;19;20031;-71
2024/03/03 05:05:20;;;;;;;12.65;6.45;;;;;;;-1.18;100.00;97085.94;6110588;19;20006;-71
2024/03/03 05:07:20;;;;;;;11.68;6.75;;;;;;;-1.27;100.00;97087.94;6111525;19;20070;-71
2024/03/03 05:09:20;;;;;;;11.20;6.15;;;;;;;-1.34;100.00;97083.06;6110600;19;20011;-71
2024/03/03 05:11:22;;;;;;;12.13;6.57;;;;;;;-1.41;100.00;97088.22;6108203;19;20006;-71
2024/03/03 05:13:22;;;;;;;9.05;5.90;;;;;;;-1.47;100.00;97095.00;6110046;19;20002;-71
2024/03/03 05:15:22;;;;;;;14.07;7.22;;;;;;;-1.52;100.00;97089.78;6103437;19;20079;-71
2024/03/03 05:17:23;;;;;;;10.82;6.13;;;;;;;-1.57;100.00;97093.50;6103046;19;20581;-71
2024/03/03 05:19:23;;;;;;;11.65;5.93;;;;;;;-1.57;100.00;97103.53;6103509;19;20371;-71
2024/03/03 05:21:24;;;;;;;9.77;6.60;;;;;;;-1.60;100.00;97098.78;6101002;19;20009;-71
2024/03/03 05:23:24;;;;;;;13.88;6.15;;;;;;;-1.65;100.00;97096.28;6103692;19;20007;-70
2024/03/03 05:25:24;;;;;;;10.70;6.88;;;;;;;-1.65;100.00;97101.72;6101085;19;20429;-71
2024/03/03 05:27:25;;;;;;;10.85;6.40;;;;;;;-1.65;100.00;97104.44;6103474;19;20006;-71
2024/03/03 05:29:26;;;;;;;14.05;5.60;;;;;;;-1.67;100.00;97093.88;6103176;19;20020;-71
2024/03/03 05:31:34;;;;;;;10.00;5.82;;;;;;;-1.67;100.00;97093.09;6101631;19;19998;-71
2024/03/03 05:33:34;;;;;;;10.20;5.43;;;;;;;-1.69;100.00;97096.16;6102607;19;20017;-71
2024/03/03 05:35:36;;;;;;;8.95;5.70;;;;;;;-1.70;100.00;97102.69;6103315;19;20541;-71
2024/03/03 05:37:36;;;;;;;10.23;5.55;;;;;;;-1.70;100.00;97099.97;6102059;19;19999;-71
2024/03/03 05:39:37;;;;;;;13.75;6.82;;;;;;;-1.74;100.00;97097.16;6101969;19;20416;-71
2024/03/03 05:41:41;;;;;;;11.48;6.57;;;;;;;-1.72;100.00;97099.53;6100423;19;19999;-71
2024/03/03 05:43:42;;;;;;;11.45;6.78;;;;;;;-1.77;100.00;97097.00;6103022;19;20003;-71
2024/03/03 05:45:42;;;;;;;15.20;7.50;;;;;;;-1.86;100.00;97099.78;6102570;19;20369;-71
2024/03/03 05:47:42;;;;;;;13.73;8.05;;;;;;;-1.92;100.00;97095.69;6102363;19;20424;-71
2024/03/03 05:49:43;;;;;;;12.60;7.72;;;;;;;-1.95;100.00;97100.97;6102577;19;20414;-71
2024/03/03 05:51:43;;;;;;;14.13;8.38;;;;;;;-1.97;100.00;97109.44;6101745;19;20467;-71
2024/03/03 05:53:43;;;;;;;21.75;9.57;;;;;;;-2.06;100.00;97106.00;6102073;19;20014;-71
2024/03/03 05:55:44;;;;;;;18.05;10.02;;;;;;;-2.07;100.00;97098.97;6102526;19;20006;-71
2024/03/03 05:57:46;;;;;;;24.35;10.48;;;;;;;-2.13;100.00;97101.09;6102699;19;21016;-71
2024/03/03 05:59:46;;;;;;;20.05;10.15;;;;;;;-2.16;100.00;97100.94;6102430;19;20006;-71
2024/03/03 06:01:49;;;;;;;20.17;9.48;;;;;;;-2.20;100.00;97097.31;6100958;19;20367;-71
2024/03/03 06:03:50;;;;;;;18.05;9.00;;;;;;;-2.24;100.00;97099.88;6102195;19;20344;-71
2024/03/03 06:05:50;;;;;;;20.48;9.77;;;;;;;-2.20;100.00;97097.31;6102247;19;19999;-71
2024/03/03 06:07:51;;;;;;;19.27;10.02;;;;;;;-2.19;100.00;97096.19;6101999;19;20010;-71
2024/03/03 06:09:51;;;;;;;18.48;9.35;;;;;;;-2.14;100.00;97107.66;6102008;19;20006;-71
2024/03/03 06:11:51;;;;;;;23.42;10.65;;;;;;;-2.14;100.00;97104.94;6101132;19;20122;-71
2024/03/03 06:13:52;;;;;;;31.67;10.25;;;;;;;-2.11;100.00;97106.97;6101998;19;20001;-71
2024/03/03 06:15:52;;;;;;;20.00;8.68;;;;;;;-2.11;100.00;97101.56;6109146;19;20002;-71
2024/03/03 06:17:53;;;;;;;18.98;9.63;;;;;;;-2.06;100.00;97112.22;6107673;19;20007;-71
2024/03/03 06:19:53;;;;;;;26.95;9.73;;;;;;;-2.04;100.00;97107.25;6108842;19;20466;-71
2024/03/03 06:21:53;;;;;;;14.40;8.48;;;;;;;-2.01;100.00;97109.28;6106796;19;20025;-71
2024/03/03 06:23:54;;;;;;;29.83;9.43;;;;;;;-1.98;100.00;97103.22;6108206;19;20027;-71
2024/03/03 06:25:54;;;;;;;19.58;10.02;;;;;;;-1.84;100.00;97102.94;6108927;19;19998;-71
2024/03/03 06:27:54;;;;;;;24.45;10.13;;;;;;;-1.77;100.00;97092.38;6108525;19;20565;-71
2024/03/03 06:29:55;;;;;;;26.10;10.52;;;;;;;-1.74;100.00;97102.56;6108204;19;20007;-71
2024/03/03 06:31:55;;;;;;;14.82;8.63;;;;;;;-1.74;100.00;97097.16;6107770;19;20009;-71
2024/03/03 06:33:57;;;;;;;18.55;9.10;;;;;;;-1.72;100.00;97103.03;6108188;19;20009;-71
2024/03/03 06:35:58;;;;;;;22.45;9.55;;;;;;;-1.72;100.00;97105.75;6107764;19;20019;-71
2024/03/03 06:37:59;;;;;;;13.23;8.32;;;;;;;-1.73;100.00;97111.50;6107837;19;20521;-71
2024/03/03 06:40:00;;;;;;;17.75;8.90;;;;;;;-1.71;100.00;97120.09;6109277;19;20021;-71
2024/03/03 06:42:00;;;;;;;15.70;9.07;;;;;;;-1.73;100.00;97115.00;6106469;19;19999;-71
2024/03/03 06:44:02;;;;;;;70.03;26.48;;;;;;;-1.74;100.00;97118.84;6108789;19;20235;-71
2024/03/03 06:46:03;;;;;;;83.60;29.33;;;;;;;-1.72;100.00;97129.34;6108048;19;19999;-71
2024/03/03 06:48:03;;;;;;;35.60;19.40;;;;;;;-1.68;100.00;97121.34;6107864;19;20052;-71
2024/03/03 06:50:05;;;;;;;56.60;17.02;;;;;;;-1.67;100.00;97123.72;6106976;19;20010;-71
2024/03/03 06:52:05;;;;;;;33.43;15.03;;;;;;;-1.63;100.00;97115.72;6105591;19;20010;-71
2024/03/03 06:54:06;;;;;;;37.30;15.80;;;;;;;-1.58;100.00;97116.31;6107760;19;20006;-71
2024/03/03 06:56:14;;;;;;;34.10;13.20;;;;;;;-1.55;100.00;97123.78;6107428;19;20002;-71
2024/03/03 06:58:14;;;;;;;24.25;12.40;;;;;;;-1.52;100.00;97120.41;6106562;19;20062;-71
2024/03/03 07:00:15;;;;;;;24.25;13.82;;;;;;;-1.47;100.00;97122.94;6106487;19;20040;-71
2024/03/03 07:02:16;;;;;;;23.23;14.07;;;;;;;-1.46;100.00;97132.66;6107258;19;19998;-71
2024/03/03 07:04:23;;;;;;;40.22;21.52;;;;;;;-1.39;100.00;97129.41;6107746;19;20055;-71
2024/03/03 07:06:24;;;;;;;31.88;18.92;;;;;;;-1.34;100.00;97128.38;6107706;19;20363;-71
2024/03/03 07:08:24;;;;;;;34.45;16.10;;;;;;;-1.28;100.00;97125.16;6107785;19;20010;-71
2024/03/03 07:10:25;;;;;;;37.35;13.93;;;;;;;-1.22;100.00;97121.09;6106499;19;20015;-71
2024/03/03 07:12:25;;;;;;;43.33;14.35;;;;;;;-1.14;100.00;97128.38;6107407;19;20007;-71
2024/03/03 07:14:26;;;;;;;30.00;13.75;;;;;;;-1.09;100.00;97121.91;6107513;19;20015;-71
2024/03/03 07:16:26;;;;;;;27.23;12.00;;;;;;;-1.02;100.00;97124.09;6107766;19;20369;-71
2024/03/03 07:18:26;;;;;;;26.73;10.90;;;;;;;-0.93;100.00;97124.78;6107606;19;20042;-71
2024/03/03 07:20:27;;;;;;;22.80;9.45;;;;;;;-0.87;100.00;97128.88;6106280;19;20426;-71
2024/03/03 07:22:31;;;;;;;22.02;10.02;;;;;;;-0.81;100.00;97140.34;6105896;19;20007;-71
2024/03/03 07:24:31;;;;;;;17.00;9.60;;;;;;;-0.74;100.00;97133.22;6107989;19;20002;-71
2024/03/03 07:26:31;;;;;;;15.82;8.15;;;;;;;-0.69;100.00;97135.72;6107954;19;20376;-71
2024/03/03 07:28:32;;;;;;;14.45;7.85;;;;;;;-0.63;100.00;97133.56;6107743;19;20489;-71
2024/03/03 07:30:32;;;;;;;16.77;8.15;;;;;;;-0.58;100.00;97130.63;6109700;19;20082;-71
2024/03/03 07:32:34;;;;;;;17.30;7.60;;;;;;;-0.54;100.00;97126.13;6113166;19;20342;-71
2024/03/03 07:34:34;;;;;;;19.33;8.13;;;;;;;-0.47;100.00;97131.78;6112156;19;20010;-71
2024/03/03 07:36:34;;;;;;;14.73;8.18;;;;;;;-0.36;100.00;97127.47;6111399;19;20613;-71
2024/03/03 07:38:35;;;;;;;16.52;8.15;;;;;;;-0.24;100.00;97121.25;6112250;19;20819;-71
2024/03/03 07:40:37;;;;;;;20.92;9.77;;;;;;;-0.15;100.00;97127.38;6111868;19;20006;-71
2024/03/03 07:42:37;;;;;;;24.25;9.75;;;;;;;-0.10;100.00;97129.06;6112795;19;20009;-71
2024/03/03 07:44:38;;;;;;;20.20;10.40;;;;;;;-0.05;100.00;97118.75;6112873;19;20041;-71
2024/03/03 07:46:39;;;;;;;18.33;9.40;;;;;;;0.04;100.00;97113.19;6112673;19;20267;-71
2024/03/03 07:48:40;;;;;;;17.65;9.40;;;;;;;0.13;100.00;97122.00;6113244;19;20070;-71
2024/03/03 07:50:40;;;;;;;15.77;8.70;;;;;;;0.16;100.00;97112.34;6109889;19;20006;-71
2024/03/03 07:52:41;;;;;;;20.55;9.85;;;;;;;0.26;100.00;97118.13;6112078;19;20014;-71
2024/03/03 07:54:41;;;;;;;19.20;9.00;;;;;;;0.28;100.00;97109.63;6111927;19;20011;-71
2024/03/03 07:56:41;;;;;;;17.85;9.18;;;;;;;0.31;100.00;97117.09;6112741;19;20002;-71
2024/03/03 07:58:42;;;;;;;18.40;9.52;;;;;;;0.34;100.00;97110.19;6111939;19;20011;-71
2024/03/03 08:00:42;;;;;;;18.77;9.80;;;;;;;0.37;100.00;97110.28;6110879;19;20013;-71
2024/03/03 08:02:43;;;;;;;16.83;9.40;;;;;;;0.43;100.00;97108.91;6110372;19;20070;-71
2024/03/03 08:04:43;;;;;;;18.05;8.40;;;;;;;0.52;100.00;97097.88;6111516;19;20333;-71
2024/03/03 08:06:43;;;;;;;14.77;8.77;;;;;;;0.55;100.00;97095.25;6112854;19;20111;-71
2024/03/03 08:08:44;;;;;;;18.27;9.13;;;;;;;0.62;100.00;97099.31;6111636;19;20040;-71
2024/03/03 08:10:44;;;;;;;19.35;9.35;;;;;;;0.72;100.00;97106.97;6110377;19;20347;-71
2024/03/03 08:12:44;;;;;;;22.73;9.98;;;;;;;0.84;100.00;97106.94;6111631;19;20033;-71
2024/03/03 08:14:45;;;;;;;16.88;8.63;;;;;;;0.87;100.00;97100.78;6112219;19;20480;-71
2024/03/03 08:16:45;;;;;;;16.27;8.10;;;;;;;0.90;100.00;97102.00;6111522;19;20040;-71
2024/03/03 08:18:45;;;;;;;15.60;8.80;;;;;;;0.95;100.00;97097.13;6111097;19;20011;-71
2024/03/03 08:20:46;;;;;;;15.65;9.50;;;;;;;1.00;100.00;97085.19;6111260;19;20018;-71
2024/03/03 08:22:46;;;;;;;16.05;9.23;;;;;;;1.05;100.00;97084.91;6111686;19;20022;-71
2024/03/03 08:24:46;;;;;;;15.77;9.10;;;;;;;1.08;100.00;97068.69;6111085;19;20022;-71
2024/03/03 08:26:49;;;;;;;17.25;9.10;;;;;;;1.13;100.00;97081.22;6112392;19;20094;-71
2024/03/03 08:28:50;;;;;;;21.88;10.07;;;;;;;1.16;100.00;97075.09;6112282;19;20010;-71
2024/03/03 08:30:50;;;;;;;17.38;9.25;;;;;;;1.18;100.00;97070.09;6110623;19;20094;-71
2024/03/03 08:32:50;;;;;;;17.25;9.73;;;;;;;1.23;100.00;97075.25;6110720;19;20007;-71
2024/03/03 08:34:51;;;;;;;19.33;9.60;;;;;;;1.29;100.00;97082.03;6112041;19;20003;-71
2024/03/03 08:36:51;;;;;;;23.33;10.63;;;;;;;1.35;100.00;97074.41;6109585;19;20014;-71
2024/03/03 08:38:51;;;;;;;14.70;8.90;;;;;;;1.42;100.00;97088.22;6110337;19;20013;-71
2024/03/03 08:40:52;;;;;;;17.25;9.07;;;;;;;1.46;100.00;97080.09;6109403;19;20007;-71
2024/03/03 08:42:52;;;;;;;16.77;9.68;;;;;;;1.49;100.00;97087.56;6111374;19;20006;-71
2024/03/03 08:44:52;;;;;;;17.50;8.68;;;;;;;1.51;100.00;97091.53;6110982;19;20003;-71
2024/03/03 08:46:54;;;;;;;14.52;9.70;;;;;;;1.60;100.00;97086.69;6111799;19;20023;-71
2024/03/03 08:48:55;;;;;;;16.30;8.77;;;;;;;1.72;100.00;97080.34;6111420;19;20017;-71
2024/03/03 08:50:55;;;;;;;17.42;10.02;;;;;;;1.83;100.00;97078.69;6111379;19;19999;-71
2024/03/03 08:52:55;;;;;;;16.58;10.73;;;;;;;1.91;100.00;97082.34;6110384;19;20023;-71
2024/03/03 08:54:56;;;;;;;21.10;11.27;;;;;;;2.01;100.00;97078.28;6113054;19;20035;-71
2024/03/03 08:56:57;;;;;;;17.85;11.23;;;;;;;2.09;100.00;97083.53;6112353;19;20011;-71
2024/03/03 08:58:57;;;;;;;22.85;12.55;;;;;;;2.15;100.00;97082.13;6111529;19;20010;-71
2024/03/03 09:00:57;;;;;;;19.38;11.48;;;;;;;2.29;100.00;97075.38;6111645;19;20010;-71
2024/03/03 09:02:58;;;;;;;18.98;11.55;;;;;;;2.40;100.00;97076.38;6112201;19;20054;-71
2024/03/03 09:05:00;;;;;;;17.95;11.02;;;;;;;2.55;100.00;97067.31;6112324;19;20014;-71
2024/03/03 09:07:00;;;;;;;23.42;11.20;;;;;;;2.68;100.00;97066.03;6112416;19;20010;-71
2024/03/03 09:09:00;;;;;;;20.45;12.75;;;;;;;2.82;100.00;97062.81;6112620;19;20036;-71
2024/03/03 09:11:03;;;;;;;21.88;12.50;;;;;;;2.93;100.00;97065.72;6111018;19;20015;-71
2024/03/03 09:13:03;;;;;;;;;;;;;;;3.01;100.00;97060.03;6110400;19;20451;-71
2024/03/03 09:15:04;;;;;;;17.83;10.98;;;;;;;3.07;100.00;97055.84;6102868;19;19918;-71
2024/03/03 09:17:05;;;;;;;21.83;12.48;;;;;;;3.14;100.00;97060.63;6111095;19;20014;-71